Time;durP1;ratioP1;P1;durP2;ratioP2;P2;SDS_P1;SDS_P2;PMS_P1;PMS_P2;Temp;Humidity;BMP_temperature;BMP_pressure;BME280_temperature;BME280_humidity;BME280_pressure;Samples;Min_cycle;Max_cycle;Signal;HPM_P1;HPM_P2
2022/02/25 00:00:43;;;;;;;28.67;20.00;;;;;;;3.67;78.48;100137.84;1830439;75;21530;-55
2022/02/25 00:03:14;;;;;;;29.20;20.43;;;;;;;3.65;78.53;100144.99;1832104;75;22117;-55
2022/02/25 00:05:42;;;;;;;30.47;21.00;;;;;;;3.65;78.60;100141.45;1832343;75;22116;-56
2022/02/25 00:08:11;;;;;;;31.13;21.90;;;;;;;3.63;78.60;100133.48;1831897;75;21352;-56
2022/02/25 00:10:39;;;;;;;34.07;21.57;;;;;;;3.62;78.66;100137.04;1825980;76;21036;-55
2022/02/25 00:13:05;;;;;;;34.10;21.83;;;;;;;3.62;78.71;100125.51;1826971;75;21107;-55
2022/02/25 00:15:33;;;;;;;30.83;19.87;;;;;;;3.60;78.78;100122.86;1826766;76;21103;-55
2022/02/25 00:18:01;;;;;;;29.67;18.90;;;;;;;3.59;78.87;100114.89;1833120;76;21033;-55
2022/02/25 00:20:29;;;;;;;31.73;20.60;;;;;;;3.57;78.94;100112.73;1825763;76;21068;-56
2022/02/25 00:22:55;;;;;;;30.80;21.20;;;;;;;3.57;79.04;100110.95;1826649;76;21080;-54
2022/02/25 00:25:23;;;;;;;32.43;21.13;;;;;;;3.57;79.12;100104.30;1827470;76;21044;-56
2022/02/25 00:27:51;;;;;;;28.93;20.30;;;;;;;3.58;79.19;100110.47;1825973;76;21024;-56
2022/02/25 00:30:19;;;;;;;29.80;20.13;;;;;;;3.57;79.24;100105.63;1826960;76;21318;-56
2022/02/25 00:32:47;;;;;;;29.70;21.60;;;;;;;3.56;79.28;100101.20;1828551;76;21088;-56
2022/02/25 00:35:15;;;;;;;27.80;20.57;;;;;;;3.56;79.29;100105.20;1827892;77;21291;-55
2022/02/25 00:37:43;;;;;;;30.47;21.70;;;;;;;3.56;79.33;100105.64;1827330;75;21119;-56
2022/02/25 00:40:12;;;;;;;29.00;19.80;;;;;;;3.54;79.34;100101.67;1827527;76;21076;-57
2022/02/25 00:42:40;;;;;;;26.97;19.63;;;;;;;3.53;79.44;100095.91;1829440;76;20866;-55
2022/02/25 00:45:08;;;;;;;27.20;19.10;;;;;;;3.53;79.52;100098.57;1830770;76;20865;-57
2022/02/25 00:47:37;;;;;;;29.40;19.70;;;;;;;3.53;79.56;100096.36;1831413;76;20959;-56
2022/02/25 00:50:08;;;;;;;28.97;20.30;;;;;;;3.53;79.64;100091.03;1833226;76;20950;-55
2022/02/25 00:52:38;;;;;;;30.30;21.07;;;;;;;3.53;79.70;100095.03;1833941;76;20990;-55
2022/02/25 00:55:07;;;;;;;28.43;20.90;;;;;;;3.51;79.69;100087.51;1834252;76;21349;-55
2022/02/25 00:57:35;;;;;;;26.60;20.43;;;;;;;3.50;79.72;100081.75;1831027;76;20937;-56
2022/02/25 01:00:03;;;;;;;31.00;20.97;;;;;;;3.50;79.74;100080.42;1774070;79;20900;-55
2022/02/25 01:02:30;;;;;;;27.43;20.00;;;;;;;3.50;79.72;100077.76;1764607;80;20873;-54
2022/02/25 01:04:58;;;;;;;26.63;18.80;;;;;;;3.50;79.74;100079.09;1775591;79;20912;-55
2022/02/25 01:07:25;;;;;;;28.73;19.60;;;;;;;3.50;79.82;100075.09;1777231;79;21068;-56
2022/02/25 01:09:52;;;;;;;28.00;21.07;;;;;;;3.51;79.85;100065.77;1793368;77;20904;-56
2022/02/25 01:12:18;;;;;;;28.87;20.40;;;;;;;3.53;79.86;100070.63;1762281;80;20930;-56
2022/02/25 01:14:44;;;;;;;30.67;21.67;;;;;;;3.53;79.86;100060.43;1772303;79;20877;-55
2022/02/25 01:17:11;;;;;;;29.83;20.23;;;;;;;3.54;79.86;100066.18;1761492;80;20913;-56
2022/02/25 01:19:37;;;;;;;30.37;21.60;;;;;;;3.55;79.83;100059.96;1776309;79;22332;-56
2022/02/25 01:22:04;;;;;;;34.13;21.13;;;;;;;3.54;79.77;100068.39;1776683;79;20921;-55
2022/02/25 01:24:32;;;;;;;29.37;21.77;;;;;;;3.54;79.74;100067.52;1777539;79;20914;-55
2022/02/25 01:26:58;;;;;;;30.03;20.80;;;;;;;3.52;79.73;100061.33;1792063;78;20907;-56
2022/02/25 01:29:24;;;;;;;30.43;19.40;;;;;;;3.52;79.75;100059.55;1790176;78;20969;-55
2022/02/25 01:31:51;;;;;;;28.40;20.67;;;;;;;3.53;79.73;100055.98;1765770;80;21734;-55
2022/02/25 01:34:17;;;;;;;26.90;19.90;;;;;;;3.54;79.74;100054.20;1776835;79;20868;-55
2022/02/25 01:36:44;;;;;;;28.83;19.37;;;;;;;3.53;79.76;100045.79;1774164;79;21125;-56
2022/02/25 01:39:11;;;;;;;30.23;20.60;;;;;;;3.53;79.76;100047.13;1776681;79;20883;-56
2022/02/25 01:41:37;;;;;;;35.63;22.83;;;;;;;3.52;79.76;100043.58;1773376;79;20970;-56
2022/02/25 01:44:22;;;;;;;30.20;21.03;;;;;;;3.51;79.73;100031.17;1772423;79;21141;-56
2022/02/25 01:46:50;;;;;;;33.15;23.47;;;;;;;3.50;79.76;100033.84;1773610;79;20923;-56
2022/02/25 01:49:17;;;;;;;36.67;24.27;;;;;;;3.50;79.75;100035.18;1760786;80;21690;-57
2022/02/25 01:51:44;;;;;;;36.30;23.40;;;;;;;3.49;79.74;100030.79;1792290;78;21078;-55
2022/02/25 01:54:10;;;;;;;30.30;20.87;;;;;;;3.48;79.70;100027.25;1787750;78;21544;-56
2022/02/25 01:56:37;;;;;;;31.60;20.43;;;;;;;3.48;79.70;100029.91;1762742;79;21601;-54
2022/02/25 01:59:04;;;;;;;27.87;19.87;;;;;;;3.50;79.70;100030.73;1795298;78;21104;-55
2022/02/25 02:01:30;;;;;;;27.63;19.57;;;;;;;3.51;79.67;100028.51;1795036;78;20919;-54
2022/02/25 02:03:57;;;;;;;30.97;21.10;;;;;;;3.50;79.64;100025.41;1766146;80;21271;-55
2022/02/25 02:06:23;;;;;;;31.00;19.57;;;;;;;3.49;79.71;100023.65;1768617;79;22068;-55
2022/02/25 02:08:51;;;;;;;29.53;21.13;;;;;;;3.49;79.70;100022.31;1761897;80;21063;-55
2022/02/25 02:11:36;;;;;;;27.63;20.63;;;;;;;3.49;79.70;100021.47;1743338;80;21043;-55
2022/02/25 02:14:05;;;;;;;30.10;20.88;;;;;;;3.48;79.73;100023.25;1736675;80;21215;-55
2022/02/25 02:16:32;;;;;;;33.13;21.53;;;;;;;3.46;79.71;100014.41;1746605;80;20934;-54
2022/02/25 02:18:58;;;;;;;30.80;21.23;;;;;;;3.45;79.71;100015.30;1741611;79;21015;-54
2022/02/25 02:21:27;;;;;;;29.73;21.07;;;;;;;3.43;79.71;100016.65;1742027;80;21090;-54
2022/02/25 02:23:54;;;;;;;26.23;19.30;;;;;;;3.44;79.74;100012.21;1741080;79;21374;-56
2022/02/25 02:26:22;;;;;;;30.30;20.40;;;;;;;3.42;79.77;100015.34;1740282;80;21132;-56
2022/02/25 02:28:49;;;;;;;29.47;19.97;;;;;;;3.40;79.85;100006.05;1771608;78;21076;-56
2022/02/25 02:31:15;;;;;;;28.37;21.40;;;;;;;3.42;79.89;100013.56;1765439;78;21073;-59
2022/02/25 02:33:42;;;;;;;26.80;20.00;;;;;;;3.41;79.91;100013.58;1748790;80;21135;-55
2022/02/25 02:36:09;;;;;;;31.00;21.77;;;;;;;3.41;79.96;100016.23;1753191;80;20915;-57
2022/02/25 02:38:36;;;;;;;30.10;21.93;;;;;;;3.40;79.99;100014.51;1762743;79;21018;-56
2022/02/25 02:41:03;;;;;;;36.03;23.40;;;;;;;3.39;80.04;100014.95;1770306;79;21139;-57
2022/02/25 02:43:30;;;;;;;29.27;21.33;;;;;;;3.38;80.05;100014.52;1747658;80;21118;-57
2022/02/25 02:45:56;;;;;;;30.87;20.83;;;;;;;3.37;80.06;100016.75;1745888;80;21111;-56
2022/02/25 02:48:23;;;;;;;29.83;19.33;;;;;;;3.38;80.08;100005.66;1766555;78;21342;-57
2022/02/25 02:50:49;;;;;;;28.40;20.63;;;;;;;3.37;80.15;100008.77;1763753;79;21037;-56
2022/02/25 02:53:15;;;;;;;25.60;19.93;;;;;;;3.39;80.24;100010.97;1762963;79;21484;-58
2022/02/25 02:55:45;;;;;;;28.17;21.27;;;;;;;3.39;80.20;100009.63;1767574;78;21499;-56
2022/02/25 02:58:11;;;;;;;30.47;21.60;;;;;;;3.39;80.25;100007.42;1769274;79;21117;-55
2022/02/25 03:00:39;;;;;;;30.37;22.80;;;;;;;3.37;80.30;99998.58;1760989;78;21077;-56
2022/02/25 03:03:06;;;;;;;31.77;22.63;;;;;;;3.36;80.31;100007.45;1770239;79;20919;-56
2022/02/25 03:05:33;;;;;;;26.27;19.67;;;;;;;3.35;80.32;100005.25;1742485;79;20970;-58
2022/02/25 03:07:59;;;;;;;26.23;17.70;;;;;;;3.33;80.32;100007.05;1767648;78;21048;-57
2022/02/25 03:10:25;;;;;;;28.40;18.53;;;;;;;3.34;80.37;100009.25;1784937;77;20957;-56
2022/02/25 03:12:53;;;;;;;27.53;19.47;;;;;;;3.34;80.42;100001.27;1786705;78;21070;-56
2022/02/25 03:15:21;;;;;;;24.47;18.03;;;;;;;3.33;80.41;100004.38;1775943;78;21039;-57
2022/02/25 03:17:48;;;;;;;25.33;19.40;;;;;;;3.33;80.51;100002.17;1795431;78;21391;-56
2022/02/25 03:20:14;;;;;;;28.00;19.43;;;;;;;3.33;80.54;99996.84;1807212;77;21079;-57
2022/02/25 03:22:41;;;;;;;25.33;18.10;;;;;;;3.32;80.58;100000.41;1802787;77;21362;-57
2022/02/25 03:25:08;;;;;;;28.00;20.60;;;;;;;3.31;80.57;99988.92;1806747;77;21096;-57
2022/02/25 03:27:34;;;;;;;28.60;21.13;;;;;;;3.28;80.60;99984.08;1802882;77;21019;-57
2022/02/25 03:30:00;;;;;;;29.27;20.53;;;;;;;3.28;80.62;99986.30;1806705;77;21539;-55
2022/02/25 03:32:27;;;;;;;24.50;18.67;;;;;;;3.29;80.69;99991.16;1805536;77;21110;-56
2022/02/25 03:34:53;;;;;;;24.87;17.13;;;;;;;3.28;80.63;99986.30;1802018;77;21547;-56
2022/02/25 03:37:20;;;;;;;23.50;16.80;;;;;;;3.27;80.59;99984.98;1806281;77;21656;-55
2022/02/25 03:39:47;;;;;;;26.07;17.60;;;;;;;3.28;80.64;99984.96;1803428;77;21587;-56
2022/02/25 03:42:13;;;;;;;26.47;16.63;;;;;;;3.30;80.68;99986.28;1789265;78;21549;-56
2022/02/25 03:44:39;;;;;;;21.83;16.83;;;;;;;3.30;80.71;99985.83;1780616;78;21667;-57
2022/02/25 03:47:06;;;;;;;25.60;17.90;;;;;;;3.31;80.75;99983.59;1803651;77;22436;-56
2022/02/25 03:49:32;;;;;;;24.67;18.07;;;;;;;3.34;80.77;99989.30;1787008;78;21537;-56
2022/02/25 03:51:59;;;;;;;26.83;18.00;;;;;;;3.33;80.70;99984.42;1801730;77;21072;-57
2022/02/25 03:54:25;;;;;;;26.27;18.43;;;;;;;3.33;80.74;99987.09;1787145;78;21049;-56
2022/02/25 03:56:51;;;;;;;23.70;18.80;;;;;;;3.33;80.67;99980.89;1803125;77;21076;-56
2022/02/25 03:59:17;;;;;;;25.23;17.90;;;;;;;3.31;80.64;99976.95;1806959;77;21123;-56
2022/02/25 04:01:51;;;;;;;22.17;16.70;;;;;;;3.30;80.60;99972.97;1803596;77;21058;-56
2022/02/25 04:04:12;;;;;;;22.43;15.93;;;;;;;3.30;80.59;99966.32;1807266;77;20966;-56
2022/02/25 04:06:38;;;;;;;23.60;17.87;;;;;;;3.28;80.61;99970.33;1809352;77;21296;-56
2022/02/25 04:09:05;;;;;;;22.77;17.83;;;;;;;3.28;80.64;99962.34;1809380;77;21545;-56
2022/02/25 04:11:31;;;;;;;22.87;17.43;;;;;;;3.28;80.65;99961.47;1807221;77;21097;-56
2022/02/25 04:13:57;;;;;;;27.07;19.23;;;;;;;3.24;80.66;99959.29;1785108;78;20943;-55
2022/02/25 04:16:25;;;;;;;26.17;19.47;;;;;;;3.23;80.69;99956.68;1784131;78;20958;-56
2022/02/25 04:18:52;;;;;;;25.43;18.43;;;;;;;3.23;80.75;99957.53;1803032;77;21037;-56
2022/02/25 04:21:18;;;;;;;28.43;17.67;;;;;;;3.22;80.75;99957.13;1784515;78;20857;-56
2022/02/25 04:23:44;;;;;;;25.20;17.13;;;;;;;3.21;80.73;99962.02;1782897;78;21087;-56
2022/02/25 04:26:10;;;;;;;24.97;17.43;;;;;;;3.21;80.70;99957.15;1802203;77;20947;-57
2022/02/25 04:28:37;;;;;;;23.10;17.47;;;;;;;3.21;80.74;99969.12;1808159;77;20885;-57
2022/02/25 04:31:03;;;;;;;23.47;16.83;;;;;;;3.21;80.78;99966.45;1805641;77;20958;-57
2022/02/25 04:33:29;;;;;;;26.90;18.40;;;;;;;3.21;80.82;99961.14;1806065;77;20938;-57
2022/02/25 04:35:56;;;;;;;25.23;17.73;;;;;;;3.21;80.84;99958.48;1798880;77;21408;-57
2022/02/25 04:38:22;;;;;;;25.60;18.67;;;;;;;3.21;80.87;99955.81;1785667;78;21324;-57
2022/02/25 04:40:48;;;;;;;25.00;18.30;;;;;;;3.19;80.83;99955.84;1780001;78;21077;-56
2022/02/25 04:43:15;;;;;;;31.03;20.17;;;;;;;3.19;80.87;99949.63;1800220;78;21013;-56
2022/02/25 04:45:41;;;;;;;26.63;19.13;;;;;;;3.18;80.89;99947.87;1804045;77;21048;-57
2022/02/25 04:48:07;;;;;;;25.97;18.93;;;;;;;3.19;80.87;99952.30;1800961;77;21128;-57
2022/02/25 04:50:34;;;;;;;23.20;16.30;;;;;;;3.19;80.86;99949.63;1778973;78;21142;-56
2022/02/25 04:53:00;;;;;;;23.03;15.87;;;;;;;3.20;80.84;99944.30;1799146;78;21014;-57
2022/02/25 04:55:29;;;;;;;21.27;16.10;;;;;;;3.22;80.86;99945.61;1801195;77;20994;-58
2022/02/25 04:57:56;;;;;;;23.97;16.80;;;;;;;3.23;80.85;99946.89;1785753;78;21149;-58
2022/02/25 05:00:22;;;;;;;25.97;16.87;;;;;;;3.24;80.83;99944.66;1798539;77;21154;-61
2022/02/25 05:02:48;;;;;;;23.60;17.10;;;;;;;3.24;80.82;99943.33;1780183;78;21066;-58
2022/02/25 05:05:16;;;;;;;28.33;18.40;;;;;;;3.24;80.85;99945.98;1803426;77;21041;-58
2022/02/25 05:07:44;;;;;;;26.20;17.00;;;;;;;3.24;80.80;99947.77;1797536;78;21516;-59
2022/02/25 05:10:10;;;;;;;26.93;19.53;;;;;;;3.23;80.80;99945.56;1790371;77;22245;-58
2022/02/25 05:12:37;;;;;;;23.70;18.70;;;;;;;3.21;80.78;99940.73;1768153;78;21125;-59
2022/02/25 05:20:36;;;;;;;28.97;18.40;;;;;;;3.19;80.69;99941.20;1770877;78;21088;-61
2022/02/25 05:23:03;;;;;;;23.73;16.00;;;;;;;3.20;80.69;99947.41;1786907;78;21424;-58
2022/02/25 05:25:31;;;;;;;22.07;16.53;;;;;;;3.21;80.72;99941.19;1794285;77;21114;-57
2022/02/25 05:27:58;;;;;;;22.10;15.33;;;;;;;3.23;80.69;99938.91;1800747;77;20878;-58
2022/02/25 05:30:25;;;;;;;23.33;17.57;;;;;;;3.26;80.69;99931.34;1795113;77;21098;-58
2022/02/25 05:32:52;;;;;;;21.03;16.43;;;;;;;3.27;80.71;99922.01;1784352;78;21389;-58
2022/02/25 05:35:18;;;;;;;29.67;19.43;;;;;;;3.29;80.69;99928.19;1786428;78;20902;-57
2022/02/25 05:37:45;;;;;;;26.47;18.33;;;;;;;3.32;80.64;99931.23;1787403;78;21974;-57
2022/02/25 05:40:14;;;;;;;25.37;19.07;;;;;;;3.32;80.53;99920.59;1797975;77;21113;-57
2022/02/25 05:42:41;;;;;;;24.57;18.37;;;;;;;3.31;80.46;99926.84;1774969;78;21120;-57
2022/02/25 05:45:09;;;;;;;24.53;17.57;;;;;;;3.30;80.39;99922.42;1776932;78;20891;-57
2022/02/25 05:47:36;;;;;;;26.87;18.40;;;;;;;3.29;80.35;99921.55;1777125;78;20982;-57
2022/02/25 05:50:04;;;;;;;23.37;16.70;;;;;;;3.30;80.31;99921.09;1772820;78;23293;-56
2022/02/25 05:52:31;;;;;;;23.53;16.10;;;;;;;3.30;80.29;99925.97;1776250;78;20894;-56
2022/02/25 05:54:57;;;;;;;24.87;16.93;;;;;;;3.30;80.29;99922.42;1777660;78;20993;-57
2022/02/25 05:57:24;;;;;;;27.50;17.97;;;;;;;3.32;80.25;99925.91;1774943;78;21128;-55
2022/02/25 05:59:50;;;;;;;24.67;16.80;;;;;;;3.30;80.24;99927.30;1777143;78;21044;-55
2022/02/25 06:02:17;;;;;;;23.73;17.80;;;;;;;3.29;80.25;99930.86;1772391;78;21129;-55
2022/02/25 06:04:43;;;;;;;23.20;17.30;;;;;;;3.29;80.20;99931.30;1770177;78;21326;-56
2022/02/25 06:07:10;;;;;;;32.20;21.50;;;;;;;3.29;80.11;99929.52;1776171;78;21105;-55
2022/02/25 06:09:36;;;;;;;27.97;19.70;;;;;;;3.27;80.16;99929.99;1777460;78;21101;-56
2022/02/25 06:12:04;;;;;;;24.20;18.87;;;;;;;3.28;80.17;99939.73;1762710;78;21148;-56
2022/02/25 06:14:32;;;;;;;29.37;18.43;;;;;;;3.29;80.11;99940.61;1756838;80;21050;-56
2022/02/25 06:17:00;;;;;;;22.77;16.37;;;;;;;3.33;80.09;99944.97;1757775;80;21105;-56
2022/02/25 06:19:26;;;;;;;24.03;16.13;;;;;;;3.33;80.06;99935.20;1760303;80;21146;-56
2022/02/25 06:21:53;;;;;;;23.47;16.07;;;;;;;3.36;80.06;99934.28;1756601;80;21777;-56
2022/02/25 06:24:20;;;;;;;23.53;16.27;;;;;;;3.38;79.99;99930.70;1758846;80;21089;-57
2022/02/25 06:26:46;;;;;;;27.63;19.07;;;;;;;3.38;79.94;99932.03;1758240;80;22221;-56
2022/02/25 06:29:12;;;;;;;28.27;18.57;;;;;;;3.40;79.95;99935.53;1757694;80;22712;-55
2022/02/25 06:31:38;;;;;;;25.03;17.30;;;;;;;3.42;79.89;99934.17;1757317;80;21679;-58
2022/02/25 06:34:06;;;;;;;24.97;17.93;;;;;;;3.45;79.78;99932.80;1757621;80;21514;-56
2022/02/25 06:36:32;;;;;;;24.33;18.33;;;;;;;3.47;79.76;99933.67;1761225;80;20970;-57
2022/02/25 06:38:58;;;;;;;21.50;15.07;;;;;;;3.49;79.64;99938.48;1758350;80;21200;-57
2022/02/25 06:41:25;;;;;;;23.10;16.17;;;;;;;3.55;79.55;99938.86;1759087;80;21057;-54
2022/02/25 06:43:51;;;;;;;19.93;14.03;;;;;;;3.60;79.46;99939.20;1758328;80;21482;-57
2022/02/25 06:46:18;;;;;;;20.37;13.80;;;;;;;3.64;79.39;99928.05;1761507;80;20971;-55
2022/02/25 06:48:44;;;;;;;23.17;15.53;;;;;;;3.69;79.21;99929.72;1763189;78;21477;-57
2022/02/25 06:51:10;;;;;;;19.73;15.17;;;;;;;3.73;79.16;99924.78;1760852;80;21288;-56
2022/02/25 06:53:37;;;;;;;22.17;16.17;;;;;;;3.79;79.00;99929.98;1760299;80;21073;-56
2022/02/25 06:56:04;;;;;;;26.80;19.10;;;;;;;3.83;78.78;99923.28;1757986;80;21066;-56
2022/02/25 06:58:31;;;;;;;24.17;17.33;;;;;;;3.85;78.60;99926.77;1760982;80;20884;-57
2022/02/25 07:00:57;;;;;;;24.03;16.07;;;;;;;3.86;78.48;99918.77;1764713;80;21010;-57
2022/02/25 07:03:23;;;;;;;20.27;15.13;;;;;;;3.88;78.36;99916.96;1766808;80;21718;-59
2022/02/25 07:05:50;;;;;;;21.87;16.30;;;;;;;3.92;78.25;99918.64;1769308;80;20896;-56
2022/02/25 07:08:16;;;;;;;23.93;15.73;;;;;;;3.94;78.08;99911.96;1764261;80;21222;-56
2022/02/25 07:10:43;;;;;;;23.73;16.40;;;;;;;3.98;78.00;99915.01;1760242;78;21008;-57
2022/02/25 07:13:10;;;;;;;20.90;16.30;;;;;;;4.01;77.98;99914.92;1778306;78;20974;-56
2022/02/25 07:15:36;;;;;;;24.70;17.47;;;;;;;4.06;77.92;99918.41;1775501;78;22435;-57
2022/02/25 07:18:03;;;;;;;21.37;16.07;;;;;;;4.11;77.84;99912.52;1774628;78;21519;-56
2022/02/25 07:20:29;;;;;;;22.77;15.57;;;;;;;4.14;77.68;99909.80;1779577;78;20939;-56
2022/02/25 07:22:55;;;;;;;24.97;16.53;;;;;;;4.17;77.58;99907.94;1779459;78;20957;-55
2022/02/25 07:25:22;;;;;;;23.37;14.50;;;;;;;4.24;77.45;99903.39;1773182;78;21397;-57
2022/02/25 07:27:48;;;;;;;20.23;14.83;;;;;;;4.30;77.26;99897.05;1775744;78;21400;-55
2022/02/25 07:30:15;;;;;;;15.73;11.97;;;;;;;4.33;76.97;99899.20;1776345;78;20935;-56
2022/02/25 07:32:42;;;;;;;15.47;12.60;;;;;;;4.37;76.62;99898.22;1780077;78;20981;-56
2022/02/25 07:35:11;;;;;;;16.20;12.57;;;;;;;4.41;76.16;99893.26;1778117;78;20930;-57
2022/02/25 07:37:38;;;;;;;16.10;12.67;;;;;;;4.45;75.85;99892.27;1779733;78;20931;-57
2022/02/25 07:40:08;;;;;;;13.97;11.00;;;;;;;4.50;75.51;99885.06;1782889;78;21133;-56
2022/02/25 07:42:35;;;;;;;12.20;9.43;;;;;;;4.54;75.26;99894.73;1777096;78;21467;-55
2022/02/25 07:45:01;;;;;;;13.10;9.60;;;;;;;4.60;74.65;99895.50;1783821;78;21553;-55
2022/02/25 07:47:29;;;;;;;14.87;10.37;;;;;;;4.64;74.25;99896.75;1772582;78;21058;-55
2022/02/25 07:49:56;;;;;;;12.43;9.30;;;;;;;4.70;73.94;99895.73;1771218;78;21237;-55
2022/02/25 07:52:22;;;;;;;15.27;10.63;;;;;;;4.76;73.74;99892.95;1770538;78;21143;-56
2022/02/25 07:54:49;;;;;;;13.40;10.37;;;;;;;4.81;73.51;99891.05;1771634;78;20946;-56
2022/02/25 07:57:15;;;;;;;15.07;11.10;;;;;;;4.87;73.18;99889.56;1772409;78;21037;-57
2022/02/25 07:59:42;;;;;;;13.33;11.03;;;;;;;4.91;72.54;99888.14;1771506;78;21089;-58
2022/02/25 08:02:09;;;;;;;14.30;11.37;;;;;;;4.96;72.24;99885.34;1775795;78;21161;-55
2022/02/25 08:04:35;;;;;;;18.30;12.27;;;;;;;5.00;72.16;99876.83;1787964;78;21072;-55
2022/02/25 08:07:03;;;;;;;18.97;12.53;;;;;;;5.04;71.97;99877.16;1787003;78;20897;-55
2022/02/25 08:09:30;;;;;;;14.10;8.03;;;;;;;5.09;71.66;99882.83;1766627;77;21049;-56
2022/02/25 08:11:57;;;;;;;11.10;9.37;;;;;;;5.14;71.03;99876.03;1791124;77;21018;-56
2022/02/25 08:14:24;;;;;;;13.33;9.00;;;;;;;5.19;70.69;99872.33;1801530;77;20939;-55
2022/02/25 08:16:51;;;;;;;12.13;9.10;;;;;;;5.24;70.39;99866.89;1770265;77;20939;-55
2022/02/25 08:19:17;;;;;;;12.10;9.83;;;;;;;5.26;69.78;99860.61;1796868;77;21174;-58
2022/02/25 08:21:43;;;;;;;13.17;8.67;;;;;;;5.29;69.54;99854.30;1795597;77;21021;-56
2022/02/25 08:24:11;;;;;;;11.13;9.90;;;;;;;5.32;69.17;99851.56;1793883;77;21139;-57
2022/02/25 08:26:38;;;;;;;9.10;7.67;;;;;;;5.34;68.78;99851.07;1794360;77;21088;-55
2022/02/25 08:29:04;;;;;;;8.67;7.40;;;;;;;5.35;68.33;99847.95;1795887;77;22853;-56
2022/02/25 08:31:30;;;;;;;7.23;6.30;;;;;;;5.36;68.06;99844.36;1779495;78;21106;-56
2022/02/25 08:33:57;;;;;;;6.27;5.60;;;;;;;5.36;67.41;99844.36;1777929;78;21108;-56
2022/02/25 08:36:23;;;;;;;6.73;6.03;;;;;;;5.39;67.09;99838.92;1778833;78;21343;-56
2022/02/25 08:38:50;;;;;;;5.57;5.00;;;;;;;5.40;66.36;99842.02;1778949;78;21366;-55
2022/02/25 08:41:16;;;;;;;1.90;1.70;;;;;;;5.40;66.12;99840.23;1777097;78;21200;-58
2022/02/25 08:43:42;;;;;;;2.23;2.03;;;;;;;5.40;64.90;99834.02;1778905;78;21112;-57
2022/02/25 08:46:09;;;;;;;4.00;3.37;;;;;;;5.36;64.09;99839.03;1776087;78;21105;-57
2022/02/25 08:48:35;;;;;;;3.33;3.03;;;;;;;5.32;63.90;99835.55;1793395;77;21024;-59
2022/02/25 08:51:02;;;;;;;3.87;2.80;;;;;;;5.36;64.02;99845.70;1798945;77;21069;-57
2022/02/25 08:53:28;;;;;;;6.17;3.37;;;;;;;5.40;63.84;99838.02;1796634;77;21094;-56
2022/02/25 08:55:54;;;;;;;3.83;3.43;;;;;;;5.44;63.58;99831.23;1796679;77;21102;-56
2022/02/25 08:58:21;;;;;;;4.17;3.83;;;;;;;5.48;63.42;99822.22;1794000;77;21144;-57
2022/02/25 09:00:47;;;;;;;3.77;3.47;;;;;;;5.52;63.32;99823.02;1796175;77;21042;-55
2022/02/25 09:03:13;;;;;;;3.77;2.83;;;;;;;5.55;63.00;99821.13;1795028;77;21100;-55
2022/02/25 09:05:40;;;;;;;3.67;2.00;;;;;;;5.57;62.67;99819.30;1796296;77;22534;-56
2022/02/25 09:08:06;;;;;;;3.23;2.40;;;;;;;5.58;61.96;99822.39;1777504;78;21346;-55
2022/02/25 09:10:33;;;;;;;2.20;1.70;;;;;;;5.62;61.51;99817.83;1796611;77;21160;-55
2022/02/25 09:12:59;;;;;;;2.23;1.73;;;;;;;5.65;61.18;99829.77;1795087;77;22617;-57
2022/02/25 09:15:26;;;;;;;2.77;1.70;;;;;;;5.67;60.30;99829.28;1796607;77;22310;-56
2022/02/25 09:17:57;;;;;;;2.63;2.40;;;;;;;5.66;59.57;99827.06;1799499;77;22891;-56
2022/02/25 09:20:29;;;;;;;3.70;2.53;;;;;;;5.62;59.01;99826.72;1747414;77;20933;-56
2022/02/25 09:22:58;;;;;;;2.53;2.33;;;;;;;5.58;59.03;99825.06;1751465;78;21455;-56
2022/02/25 09:25:27;;;;;;;4.20;2.57;;;;;;;5.56;59.26;99825.55;1788320;77;21447;-56
2022/02/25 09:27:54;;;;;;;10.07;2.27;;;;;;;5.54;59.39;99814.48;1798344;77;21121;-58
2022/02/25 09:30:21;;;;;;;2.27;1.90;;;;;;;5.54;59.58;99818.50;1796005;77;21127;-56
2022/02/25 09:32:48;;;;;;;3.47;2.20;;;;;;;5.53;59.62;99816.77;1791391;77;21069;-55
2022/02/25 09:35:14;;;;;;;2.40;2.17;;;;;;;5.52;59.24;99807.88;1781249;78;21040;-56
2022/02/25 09:37:41;;;;;;;2.73;1.87;;;;;;;5.52;59.28;99809.22;1761871;78;21071;-56
2022/02/25 09:40:13;;;;;;;2.50;2.30;;;;;;;5.52;58.92;99803.00;1777289;78;21131;-57
2022/02/25 09:42:41;;;;;;;3.20;2.90;;;;;;;5.51;58.72;99795.91;1778662;78;22720;-56
2022/02/25 09:45:09;;;;;;;4.53;2.07;;;;;;;5.50;58.60;99801.70;1777401;78;21373;-56
2022/02/25 09:47:35;;;;;;;3.97;2.83;;;;;;;5.51;58.60;99790.56;1781082;78;20970;-55
2022/02/25 09:50:05;;;;;;;4.70;3.27;;;;;;;5.51;58.47;99790.56;1778852;78;21117;-56
2022/02/25 09:52:33;;;;;;;6.03;2.17;;;;;;;5.53;58.75;99789.58;1779586;78;21149;-56
2022/02/25 09:54:59;;;;;;;2.93;2.23;;;;;;;5.58;58.70;99785.02;1785397;78;21125;-55
2022/02/25 09:57:26;;;;;;;2.20;2.00;;;;;;;5.65;58.36;99779.03;1796095;77;21030;-57
2022/02/25 09:59:52;;;;;;;3.03;2.47;;;;;;;5.68;58.07;99785.17;1777747;78;21103;-55
2022/02/25 10:02:19;;;;;;;2.90;2.23;;;;;;;5.74;57.86;99781.91;1781511;78;21062;-55
2022/02/25 10:04:46;;;;;;;2.53;1.63;;;;;;;5.75;57.65;99776.53;1777277;78;21074;-56
2022/02/25 10:07:26;;;;;;;3.07;2.00;;;;;;;5.75;57.66;99772.52;1782616;78;21507;-55
2022/02/25 10:09:52;;;;;;;3.50;2.67;;;;;;;5.76;57.56;99765.39;1785189;78;21052;-55
2022/02/25 10:12:20;;;;;;;2.83;2.13;;;;;;;5.76;57.61;99764.05;1791721;77;20948;-55
2022/02/25 10:14:48;;;;;;;3.03;2.50;;;;;;;5.78;57.52;99755.55;1779270;78;20921;-55
2022/02/25 10:17:22;;;;;;;3.67;2.20;;;;;;;5.79;57.54;99747.91;1776826;78;20946;-55
2022/02/25 10:20:00;;;;;;;2.40;2.20;;;;;;;5.85;57.73;99735.74;1776375;78;22461;-57
2022/02/25 10:22:36;;;;;;;3.10;2.20;;;;;;;5.94;57.41;99729.70;1777515;78;20882;-55
2022/02/25 10:26:50;;;;;;;3.20;2.00;;;;;;;6.17;56.96;99714.30;1861791;74;22312;-58
2022/02/25 10:29:16;;;;;;;2.33;1.70;;;;;;;6.20;56.65;99720.89;1837320;75;21266;-57
2022/02/25 10:31:43;;;;;;;3.37;2.67;;;;;;;6.25;56.39;99722.08;1835932;75;21864;-56
2022/02/25 10:34:16;;;;;;;3.30;3.00;;;;;;;6.30;56.21;99732.15;1817105;75;21546;-56
2022/02/25 10:36:53;;;;;;;2.53;2.33;;;;;;;6.34;56.36;99728.47;1781853;78;21005;-55
2022/02/25 10:39:24;;;;;;;4.83;2.23;;;;;;;6.39;56.37;99724.72;1776902;78;20944;-57
2022/02/25 10:42:16;;;;;;;3.77;3.43;;;;;;;6.47;56.28;99719.13;1794973;78;20891;-56
2022/02/25 10:44:45;;;;;;;3.03;2.20;;;;;;;6.54;55.76;99719.83;1782702;78;21796;-56
2022/02/25 10:47:25;;;;;;;2.90;2.60;;;;;;;6.59;55.73;99718.74;1786950;78;22067;-56
2022/02/25 10:50:09;;;;;;;4.17;3.77;;;;;;;6.64;55.64;99706.54;1781986;78;21052;-56
2022/02/25 10:52:45;;;;;;;3.53;2.13;;;;;;;6.71;55.75;99696.08;1787977;78;21063;-55
2022/02/25 10:55:18;;;;;;;3.47;3.17;;;;;;;6.78;55.34;99685.58;1790426;78;21499;-54
2022/02/25 10:57:45;;;;;;;2.90;2.50;;;;;;;6.81;55.22;99685.45;1750545;79;21095;-55
2022/02/25 11:00:14;;;;;;;3.43;1.97;;;;;;;6.87;55.25;99681.71;1757028;79;20990;-56
2022/02/25 11:02:43;;;;;;;4.10;3.10;;;;;;;6.92;55.29;99676.60;1759348;79;20988;-57
2022/02/25 11:05:12;;;;;;;4.67;2.97;;;;;;;6.96;54.92;99674.70;1735970;79;21142;-56
2022/02/25 11:07:43;;;;;;;2.97;2.77;;;;;;;6.98;54.70;99659.45;1739874;79;21290;-56
2022/02/25 11:10:12;;;;;;;2.90;2.63;;;;;;;6.99;54.51;99654.51;1740555;79;21075;-56
2022/02/25 11:12:40;;;;;;;2.83;2.53;;;;;;;7.00;54.63;99657.59;1741825;79;20933;-56
2022/02/25 11:15:12;;;;;;;2.87;1.97;;;;;;;7.03;54.36;99652.15;1740432;79;21418;-56
2022/02/25 11:17:41;;;;;;;8.60;2.90;;;;;;;7.03;54.41;99650.81;1719779;79;21093;-56
2022/02/25 11:20:10;;;;;;;3.07;2.67;;;;;;;7.03;54.22;99645.46;1741473;79;20993;-56
2022/02/25 11:22:41;;;;;;;3.97;2.47;;;;;;;7.02;54.29;99641.91;1744905;79;21589;-56
2022/02/25 11:25:15;;;;;;;4.10;3.37;;;;;;;7.02;54.24;99641.03;1743364;79;22603;-56
2022/02/25 11:27:42;;;;;;;3.97;3.33;;;;;;;7.04;54.25;99638.72;1741044;81;21451;-56
2022/02/25 11:30:29;;;;;;;3.40;2.37;;;;;;;7.07;53.96;99637.25;1740340;81;21501;-56
2022/02/25 11:33:19;;;;;;;2.67;2.20;;;;;;;7.12;53.98;99646.47;1739054;81;21052;-56
2022/02/25 11:35:55;;;;;;;1.97;1.77;;;;;;;7.14;53.54;99637.47;1743186;81;21138;-56